createdAt,value
2018-08-10T00:00:40.159Z,98909.00
2018-08-10T00:03:10.297Z,98907.00
2018-08-10T00:05:40.239Z,98911.00
2018-08-10T00:08:09.090Z,98916.00
2018-08-10T00:10:37.793Z,98912.00
2018-08-10T00:13:06.614Z,98901.00
2018-08-10T00:15:35.518Z,98904.00
2018-08-10T00:18:04.413Z,98903.00
2018-08-10T00:20:33.249Z,98906.00
2018-08-10T00:23:01.940Z,98917.00
2018-08-10T00:25:30.756Z,98915.00
2018-08-10T00:27:59.506Z,98915.00
2018-08-10T00:30:28.275Z,98911.00
2018-08-10T00:32:57.111Z,98908.00
2018-08-10T00:35:25.763Z,98899.00
2018-08-10T00:37:54.808Z,98884.00
2018-08-10T00:40:23.989Z,98881.00
2018-08-10T00:42:52.878Z,98877.00
2018-08-10T00:45:21.696Z,98878.00
2018-08-10T00:47:50.453Z,98884.00
2018-08-10T00:50:19.151Z,98889.00
2018-08-10T00:52:48.421Z,98891.00
2018-08-10T00:55:18.368Z,98891.00
2018-08-10T00:57:47.744Z,98892.00
2018-08-10T01:00:22.986Z,98894.00
2018-08-10T01:02:52.491Z,98887.00
2018-08-10T01:05:21.214Z,98884.00
2018-08-10T01:07:50.053Z,98890.00
2018-08-10T01:10:19.769Z,98898.00
2018-08-10T01:12:48.786Z,98906.00
2018-08-10T01:15:17.936Z,98903.00
2018-08-10T01:17:47.126Z,98904.00
2018-08-10T01:20:20.503Z,98905.00
2018-08-10T01:22:54.923Z,98911.00
2018-08-10T01:25:25.364Z,98912.00
2018-08-10T01:27:59.666Z,98909.00
2018-08-10T01:30:29.571Z,98906.00
2018-08-10T01:32:58.885Z,98905.00
2018-08-10T01:35:28.338Z,98902.00
2018-08-10T01:37:58.241Z,98900.00
2018-08-10T01:40:27.078Z,98897.00
2018-08-10T01:42:55.738Z,98899.00
2018-08-10T01:45:24.465Z,98893.00
2018-08-10T01:47:53.343Z,98892.00
2018-08-10T01:50:22.387Z,98892.00
2018-08-10T01:52:51.026Z,98885.00
2018-08-10T01:55:19.871Z,98881.00
2018-08-10T01:57:48.540Z,98876.00
2018-08-10T02:00:17.196Z,98867.00
2018-08-10T02:02:45.878Z,98859.00
2018-08-10T02:05:15.295Z,98858.00
2018-08-10T02:07:44.594Z,98856.00
2018-08-10T02:10:14.941Z,98859.00
2018-08-10T02:12:44.443Z,98852.00
2018-08-10T02:15:15.735Z,98853.00
2018-08-10T02:17:44.506Z,98853.00
2018-08-10T02:20:14.791Z,98846.00
2018-08-10T02:22:43.756Z,98845.00
2018-08-10T02:25:13.993Z,98850.00
2018-08-10T02:27:43.738Z,98827.00
2018-08-10T02:30:13.795Z,98843.00
2018-08-10T02:32:43.166Z,98839.00
2018-08-10T02:35:12.016Z,98845.00
2018-08-10T02:37:41.290Z,98840.00
2018-08-10T02:40:17.213Z,98840.00
2018-08-10T02:42:47.009Z,98838.00
2018-08-10T02:45:16.191Z,98842.00
2018-08-10T02:47:45.551Z,98845.00
2018-08-10T02:50:14.476Z,98848.00
2018-08-10T02:52:43.318Z,98845.00
2018-08-10T02:55:12.688Z,98847.00
2018-08-10T02:57:41.665Z,98837.00
2018-08-10T03:00:12.858Z,98843.00
2018-08-10T03:02:42.121Z,98851.00
2018-08-10T03:05:11.023Z,98855.00
2018-08-10T03:07:40.243Z,98857.00
2018-08-10T03:10:10.855Z,98864.00
2018-08-10T03:12:39.607Z,98864.00
2018-08-10T03:15:12.926Z,98865.00
2018-08-10T03:17:41.950Z,98863.00
2018-08-10T03:20:11.090Z,98869.00
2018-08-10T03:22:40.149Z,98875.00
2018-08-10T03:25:10.653Z,98875.00
2018-08-10T03:27:39.445Z,98876.00
2018-08-10T03:30:10.078Z,98879.00
2018-08-10T03:32:39.035Z,98876.00
2018-08-10T03:35:07.847Z,98880.00
2018-08-10T03:37:37.103Z,98888.00
2018-08-10T03:40:08.743Z,98893.00
2018-08-10T03:42:37.395Z,98894.00
2018-08-10T03:45:06.558Z,98901.00
2018-08-10T03:47:35.678Z,98899.00
2018-08-10T03:50:05.646Z,98907.00
2018-08-10T03:52:34.358Z,98914.00
2018-08-10T03:55:03.143Z,98909.00
2018-08-10T03:57:31.755Z,98909.00
2018-08-10T04:00:00.521Z,98910.00
2018-08-10T04:02:29.225Z,98919.00
2018-08-10T04:04:57.988Z,98927.00
2018-08-10T04:07:26.758Z,98924.00
2018-08-10T04:09:55.497Z,98919.00
2018-08-10T04:12:24.160Z,98922.00
2018-08-10T04:14:52.863Z,98922.00
2018-08-10T04:17:25.524Z,98929.00
2018-08-10T04:19:55.018Z,98921.00
2018-08-10T04:22:24.960Z,98923.00
2018-08-10T04:24:53.664Z,98919.00
2018-08-10T04:27:22.482Z,98929.00
2018-08-10T04:29:51.191Z,98937.00
2018-08-10T04:32:20.131Z,98941.00
2018-08-10T04:34:48.815Z,98940.00
2018-08-10T04:37:17.947Z,98943.00
2018-08-10T04:39:46.691Z,98944.00
2018-08-10T04:42:15.365Z,98942.00
2018-08-10T04:44:43.983Z,98946.00
2018-08-10T04:47:12.715Z,98951.00
2018-08-10T04:49:41.395Z,98957.00
2018-08-10T04:52:10.016Z,98959.00
2018-08-10T04:54:38.700Z,98956.00
2018-08-10T04:57:07.482Z,98945.00
2018-08-10T04:59:36.118Z,98948.00
2018-08-10T05:02:05.904Z,98957.00
2018-08-10T05:04:34.561Z,98962.00
2018-08-10T05:07:03.413Z,98964.00
2018-08-10T05:09:32.073Z,98965.00
2018-08-10T05:12:00.658Z,98966.00
2018-08-10T05:14:29.243Z,98965.00
2018-08-10T05:16:57.938Z,98963.00
2018-08-10T05:19:26.747Z,98964.00
2018-08-10T05:21:55.418Z,98969.00
2018-08-10T05:24:24.163Z,98975.00
2018-08-10T05:26:52.923Z,98980.00
2018-08-10T05:29:21.738Z,98976.00
2018-08-10T05:31:50.397Z,98976.00
2018-08-10T05:34:19.069Z,98980.00
2018-08-10T05:36:47.812Z,98988.00
2018-08-10T05:39:16.575Z,99004.00
2018-08-10T05:41:45.198Z,99007.00
2018-08-10T05:44:13.850Z,99006.00
2018-08-10T05:46:42.497Z,99004.00
2018-08-10T05:49:11.181Z,99007.00
2018-08-10T05:51:39.799Z,99008.00
2018-08-10T05:54:08.486Z,99011.00
2018-08-10T05:56:38.308Z,99020.00
2018-08-10T05:59:07.059Z,99025.00
2018-08-10T06:01:35.765Z,99026.00
2018-08-10T06:04:04.986Z,99023.00
2018-08-10T06:06:33.494Z,99027.00
2018-08-10T06:09:02.215Z,99027.00
2018-08-10T06:11:30.929Z,99034.00
2018-08-10T06:13:59.656Z,99033.00
2018-08-10T06:16:28.398Z,99030.00
2018-08-10T06:18:57.039Z,99026.00
2018-08-10T06:21:25.635Z,99031.00
2018-08-10T06:23:54.281Z,99026.00
2018-08-10T06:26:23.140Z,99019.00
2018-08-10T06:28:51.946Z,99006.00
2018-08-10T06:31:20.791Z,99031.00
2018-08-10T06:33:49.520Z,99036.00
2018-08-10T06:36:18.253Z,99029.00
2018-08-10T06:38:46.986Z,99030.00
2018-08-10T06:41:15.645Z,99032.00
2018-08-10T06:43:44.338Z,99037.00
2018-08-10T06:46:12.991Z,99035.00
2018-08-10T06:48:42.076Z,99040.00
2018-08-10T06:51:10.751Z,99019.00
2018-08-10T06:53:39.531Z,99044.00
2018-08-10T06:56:09.032Z,99040.00
2018-08-10T06:58:37.713Z,99039.00
2018-08-10T07:01:06.544Z,99040.00
2018-08-10T07:03:35.193Z,99036.00
2018-08-10T07:06:03.876Z,99039.00
2018-08-10T07:08:33.657Z,99046.00
2018-08-10T07:11:02.493Z,99042.00
2018-08-10T07:13:31.298Z,99045.00
2018-08-10T07:16:00.001Z,99043.00
2018-08-10T07:18:28.691Z,99042.00
2018-08-10T07:20:57.323Z,99042.00
2018-08-10T07:23:26.004Z,99038.00
2018-08-10T07:25:54.708Z,99046.00
2018-08-10T07:28:23.468Z,99049.00
2018-08-10T07:30:52.337Z,99052.00
2018-08-10T07:33:21.379Z,99054.00
2018-08-10T07:35:50.225Z,99059.00
2018-08-10T07:38:19.091Z,99056.00
2018-08-10T07:40:47.932Z,99061.00
2018-08-10T07:43:16.851Z,99058.00
2018-08-10T07:45:45.601Z,99056.00
2018-08-10T07:48:14.255Z,99062.00
2018-08-10T07:50:43.156Z,99063.00
2018-08-10T07:53:12.171Z,99060.00
2018-08-10T07:55:40.964Z,99063.00
2018-08-10T07:58:09.959Z,99062.00
2018-08-10T08:00:38.790Z,99048.00
2018-08-10T08:03:07.749Z,99052.00
2018-08-10T08:05:36.525Z,99058.00
2018-08-10T08:08:05.557Z,99058.00
2018-08-10T08:10:34.451Z,99059.00
2018-08-10T08:13:03.150Z,99055.00
2018-08-10T08:15:31.986Z,99059.00
2018-08-10T08:18:00.848Z,99064.00
2018-08-10T08:20:29.544Z,99059.00
2018-08-10T08:23:03.828Z,99060.00
2018-08-10T08:25:34.019Z,99052.00
2018-08-10T08:28:02.826Z,99051.00
2018-08-10T08:30:31.556Z,99053.00
2018-08-10T08:33:00.320Z,99055.00
2018-08-10T08:35:29.016Z,99053.00
2018-08-10T08:38:13.321Z,99051.00
2018-08-10T08:40:42.229Z,99053.00
2018-08-10T08:43:11.127Z,99051.00
2018-08-10T08:46:00.943Z,99050.00
2018-08-10T08:48:30.985Z,99051.00
2018-08-10T08:51:02.536Z,99055.00
2018-08-10T08:53:31.506Z,99056.00
2018-08-10T08:56:02.873Z,99051.00
2018-08-10T08:58:32.233Z,99043.00
2018-08-10T09:01:01.302Z,99049.00
2018-08-10T09:03:46.909Z,99047.00
2018-08-10T09:06:17.820Z,99051.00
2018-08-10T09:09:34.341Z,99054.00
2018-08-10T09:12:03.107Z,99054.00
2018-08-10T09:14:43.913Z,99049.00
2018-08-10T09:17:13.198Z,99051.00
2018-08-10T09:19:42.391Z,99053.00
2018-08-10T09:22:11.719Z,99047.00
2018-08-10T09:24:41.199Z,99046.00
2018-08-10T09:27:10.345Z,99046.00
2018-08-10T09:29:39.207Z,99047.00
2018-08-10T09:32:08.057Z,99039.00
2018-08-10T09:34:36.821Z,99032.00
2018-08-10T09:37:06.484Z,99032.00
2018-08-10T09:39:35.434Z,99033.00
2018-08-10T09:42:06.438Z,99036.00
2018-08-10T09:44:35.600Z,99041.00
2018-08-10T09:47:05.201Z,99037.00
2018-08-10T09:49:52.044Z,99030.00
2018-08-10T09:52:21.102Z,99029.00
2018-08-10T09:55:40.393Z,99019.00
2018-08-10T09:58:18.196Z,99021.00
2018-08-10T10:00:53.366Z,99015.00
2018-08-10T10:03:24.456Z,99012.00
2018-08-10T10:05:55.990Z,99014.00
2018-08-10T10:08:25.312Z,99016.00
2018-08-10T10:10:54.286Z,99028.00
2018-08-10T10:13:23.038Z,99027.00
2018-08-10T10:15:51.780Z,99021.00
2018-08-10T10:18:20.476Z,99029.00
2018-08-10T10:20:49.283Z,99025.00
2018-08-10T10:23:17.974Z,99027.00
2018-08-10T10:25:46.736Z,99027.00
2018-08-10T10:28:16.021Z,99027.00
2018-08-10T10:30:44.779Z,99017.00
2018-08-10T10:33:13.555Z,99022.00
2018-08-10T10:35:42.745Z,99022.00
2018-08-10T10:38:12.293Z,99020.00
2018-08-10T10:40:41.031Z,99015.00
2018-08-10T10:43:09.709Z,99013.00
2018-08-10T10:45:38.378Z,99008.00
2018-08-10T10:48:07.443Z,99014.00
2018-08-10T10:50:36.143Z,99017.00
2018-08-10T10:53:04.931Z,99010.00
2018-08-10T10:55:33.675Z,99007.00
2018-08-10T10:58:02.885Z,99003.00
2018-08-10T11:00:31.669Z,99006.00
2018-08-10T11:03:00.372Z,99007.00
2018-08-10T11:05:29.796Z,99004.00
2018-08-10T11:07:58.461Z,99014.00
2018-08-10T11:10:27.213Z,99004.00
2018-08-10T11:12:55.918Z,99006.00
2018-08-10T11:15:24.710Z,99010.00
2018-08-10T11:17:53.457Z,99008.00
2018-08-10T11:20:22.290Z,99008.00
2018-08-10T11:22:52.383Z,99005.00
2018-08-10T11:25:22.537Z,99004.00
2018-08-10T11:27:51.512Z,99002.00
2018-08-10T11:30:20.334Z,99003.00
2018-08-10T11:32:49.503Z,99004.00
2018-08-10T11:35:18.231Z,99002.00
2018-08-10T11:37:46.980Z,99007.00
2018-08-10T11:40:15.796Z,99006.00
2018-08-10T11:42:44.633Z,99002.00
2018-08-10T11:45:16.143Z,98998.00
2018-08-10T11:47:45.099Z,98991.00
2018-08-10T11:50:13.994Z,98991.00
2018-08-10T11:52:42.746Z,98988.00
2018-08-10T11:55:14.275Z,98993.00
2018-08-10T11:57:44.230Z,98990.00
2018-08-10T12:00:14.408Z,98993.00
2018-08-10T12:02:43.520Z,98985.00
2018-08-10T12:05:13.073Z,98988.00
2018-08-10T12:07:41.968Z,98981.00
2018-08-10T12:10:10.845Z,98983.00
2018-08-10T12:12:39.695Z,98979.00
2018-08-10T12:15:11.099Z,98973.00
2018-08-10T12:17:40.073Z,98964.00
2018-08-10T12:20:09.463Z,98971.00
2018-08-10T12:22:40.218Z,98966.00
2018-08-10T12:25:09.757Z,98957.00
2018-08-10T12:27:39.111Z,98964.00
2018-08-10T12:30:10.436Z,98968.00
2018-08-10T12:32:41.175Z,98972.00
2018-08-10T12:35:10.471Z,98983.00
2018-08-10T12:37:39.700Z,98988.00
2018-08-10T12:40:08.963Z,98979.00
2018-08-10T12:42:39.525Z,98976.00
2018-08-10T12:45:08.845Z,98970.00
2018-08-10T12:47:37.973Z,98966.00
2018-08-10T12:50:07.200Z,98971.00
2018-08-10T12:52:36.045Z,98965.00
2018-08-10T12:55:06.596Z,98964.00
2018-08-10T12:57:35.423Z,98966.00
2018-08-10T13:00:06.967Z,98969.00
2018-08-10T13:02:35.774Z,98970.00
2018-08-10T13:05:05.478Z,98967.00
2018-08-10T13:07:34.430Z,98967.00
2018-08-10T13:10:03.668Z,98962.00
2018-08-10T13:12:32.431Z,98958.00
2018-08-10T13:15:01.128Z,98960.00
2018-08-10T13:17:29.979Z,98955.00
2018-08-10T13:19:58.761Z,98952.00
2018-08-10T13:22:28.212Z,98945.00
2018-08-10T13:24:57.050Z,98939.00
2018-08-10T13:27:25.769Z,98941.00
2018-08-10T13:29:54.650Z,98933.00
2018-08-10T13:32:24.191Z,98933.00
2018-08-10T13:34:52.912Z,98930.00
2018-08-10T13:37:21.620Z,98930.00
2018-08-10T13:39:50.606Z,98931.00
2018-08-10T13:42:19.383Z,98930.00
2018-08-10T13:44:48.154Z,98922.00
2018-08-10T13:47:16.918Z,98922.00
2018-08-10T13:49:45.914Z,98917.00
2018-08-10T13:52:14.728Z,98919.00
2018-08-10T13:54:44.364Z,98925.00
2018-08-10T13:57:13.176Z,98918.00
2018-08-10T13:59:42.162Z,98916.00
2018-08-10T14:02:11.155Z,98913.00
2018-08-10T14:04:39.853Z,98907.00
2018-08-10T14:07:08.642Z,98904.00
2018-08-10T14:09:37.384Z,98906.00
2018-08-10T14:12:06.125Z,98909.00
2018-08-10T14:14:35.883Z,98910.00
2018-08-10T14:17:04.719Z,98898.00
2018-08-10T14:19:33.381Z,98903.00
2018-08-10T14:22:02.099Z,98899.00
2018-08-10T14:24:31.016Z,98899.00
2018-08-10T14:26:59.811Z,98896.00
2018-08-10T14:29:29.448Z,98901.00
2018-08-10T14:31:58.209Z,98899.00
2018-08-10T14:34:26.986Z,98895.00
2018-08-10T14:36:55.713Z,98887.00
2018-08-10T14:39:24.591Z,98885.00
2018-08-10T14:41:53.434Z,98880.00
2018-08-10T14:44:22.213Z,98880.00
2018-08-10T14:46:51.030Z,98882.00
2018-08-10T14:49:21.421Z,98879.00
2018-08-10T14:51:50.236Z,98877.00
2018-08-10T14:54:18.945Z,98878.00
2018-08-10T14:56:47.839Z,98876.00
2018-08-10T14:59:16.671Z,98883.00
2018-08-10T15:01:45.519Z,98881.00
2018-08-10T15:04:14.377Z,98882.00
2018-08-10T15:06:43.246Z,98888.00
2018-08-10T15:09:13.306Z,98882.00
2018-08-10T15:11:42.983Z,98880.00
2018-08-10T15:14:11.818Z,98886.00
2018-08-10T15:16:41.241Z,98883.00
2018-08-10T15:19:10.415Z,98888.00
2018-08-10T15:21:39.181Z,98887.00
2018-08-10T15:24:07.913Z,98886.00
2018-08-10T15:26:36.749Z,98893.00
2018-08-10T15:29:05.932Z,98881.00
2018-08-10T15:31:34.764Z,98881.00
2018-08-10T15:34:03.623Z,98887.00
2018-08-10T15:36:32.393Z,98884.00
2018-08-10T15:39:01.151Z,98879.00
2018-08-10T15:41:30.026Z,98876.00
2018-08-10T15:43:58.905Z,98880.00
2018-08-10T15:46:27.651Z,98881.00
2018-08-10T15:48:56.465Z,98884.00
2018-08-10T15:51:25.145Z,98880.00
2018-08-10T15:53:53.818Z,98879.00
2018-08-10T15:56:22.593Z,98881.00
2018-08-10T15:58:51.227Z,98864.00
2018-08-10T16:01:19.957Z,98884.00
2018-08-10T16:03:48.714Z,98890.00
2018-08-10T16:06:17.560Z,98885.00
2018-08-10T16:08:46.333Z,98886.00
2018-08-10T16:11:15.133Z,98881.00
2018-08-10T16:13:44.077Z,98881.00
2018-08-10T16:16:12.924Z,98873.00
2018-08-10T16:18:42.841Z,98875.00
2018-08-10T16:21:11.641Z,98876.00
2018-08-10T16:23:40.826Z,98876.00
2018-08-10T16:26:09.586Z,98874.00
2018-08-10T16:28:38.364Z,98869.00
2018-08-10T16:31:07.714Z,98868.00
2018-08-10T16:33:36.474Z,98875.00
2018-08-10T16:36:05.290Z,98874.00
2018-08-10T16:38:34.209Z,98870.00
2018-08-10T16:41:03.090Z,98873.00
2018-08-10T16:43:31.854Z,98881.00
2018-08-10T16:46:00.674Z,98876.00
2018-08-10T16:48:29.641Z,98878.00
2018-08-10T16:50:58.544Z,98874.00
2018-08-10T16:53:28.341Z,98878.00
2018-08-10T16:55:57.127Z,98875.00
2018-08-10T16:58:26.235Z,98880.00
2018-08-10T17:00:55.057Z,98879.00
2018-08-10T17:03:23.850Z,98880.00
2018-08-10T17:05:52.660Z,98882.00
2018-08-10T17:08:21.414Z,98883.00
2018-08-10T17:10:50.879Z,98889.00
2018-08-10T17:13:19.771Z,98885.00
2018-08-10T17:15:48.638Z,98887.00
2018-08-10T17:18:17.664Z,98887.00
2018-08-10T17:20:46.576Z,98892.00
2018-08-10T17:23:15.906Z,98893.00
2018-08-10T17:25:46.058Z,98897.00
2018-08-10T17:28:14.904Z,98900.00
2018-08-10T17:30:43.731Z,98898.00
2018-08-10T17:33:12.476Z,98898.00
2018-08-10T17:35:43.111Z,98899.00
2018-08-10T17:38:11.820Z,98902.00
2018-08-10T17:40:40.507Z,98896.00
2018-08-10T17:43:09.279Z,98899.00
2018-08-10T17:45:38.025Z,98908.00
2018-08-10T17:48:06.870Z,98902.00
2018-08-10T17:51:11.598Z,98899.00
2018-08-10T17:53:40.295Z,98906.00
2018-08-10T17:56:09.216Z,98899.00
2018-08-10T17:58:38.153Z,98899.00
2018-08-10T18:01:06.878Z,98901.00
2018-08-10T18:03:36.061Z,98906.00
2018-08-10T18:06:04.881Z,98909.00
2018-08-10T18:08:33.646Z,98913.00
2018-08-10T18:11:02.578Z,98914.00
2018-08-10T18:13:31.341Z,98918.00
2018-08-10T18:16:00.138Z,98918.00
2018-08-10T18:18:28.858Z,98920.00
2018-08-10T18:20:57.597Z,98923.00
2018-08-10T18:23:26.284Z,98924.00
2018-08-10T18:25:55.079Z,98932.00
2018-08-10T18:28:23.839Z,98927.00
2018-08-10T18:30:52.533Z,98935.00
2018-08-10T18:33:21.519Z,98939.00
2018-08-10T18:35:50.279Z,98939.00
2018-08-10T18:38:18.986Z,98937.00
2018-08-10T18:40:47.623Z,98944.00
2018-08-10T18:43:16.354Z,98949.00
2018-08-10T18:45:45.031Z,98948.00
2018-08-10T18:48:13.741Z,98952.00
2018-08-10T18:50:42.578Z,98951.00
2018-08-10T18:53:11.339Z,98958.00
2018-08-10T18:55:40.571Z,98963.00
2018-08-10T18:58:09.274Z,98966.00
2018-08-10T19:00:38.082Z,98963.00
2018-08-10T19:03:06.935Z,98967.00
2018-08-10T19:05:35.678Z,98969.00
2018-08-10T19:08:04.524Z,98976.00
2018-08-10T19:10:33.379Z,98976.00
2018-08-10T19:13:03.197Z,98979.00
2018-08-10T19:15:31.917Z,98983.00
2018-08-10T19:18:00.611Z,98991.00
2018-08-10T19:20:29.363Z,98993.00
2018-08-10T19:22:58.426Z,98992.00
2018-08-10T19:25:27.198Z,98994.00
2018-08-10T19:27:56.083Z,98996.00
2018-08-10T19:30:25.153Z,99003.00
2018-08-10T19:32:54.118Z,99008.00
2018-08-10T19:35:22.882Z,99009.00
2018-08-10T19:37:52.968Z,99010.00
2018-08-10T19:40:21.867Z,99010.00
2018-08-10T19:42:50.672Z,99008.00
2018-08-10T19:45:19.556Z,99008.00
2018-08-10T19:47:48.468Z,99008.00
2018-08-10T19:50:21.671Z,99008.00
2018-08-10T19:52:50.732Z,99017.00
2018-08-10T19:55:20.106Z,99019.00
2018-08-10T19:57:49.500Z,99017.00
2018-08-10T20:00:19.451Z,99016.00
2018-08-10T20:02:50.147Z,99016.00
2018-08-10T20:05:18.923Z,99015.00
2018-08-10T20:07:47.973Z,99016.00
2018-08-10T20:10:16.967Z,99016.00
2018-08-10T20:12:46.953Z,99016.00
2018-08-10T20:15:17.968Z,99020.00
2018-08-10T20:17:46.754Z,99017.00
2018-08-10T20:20:17.468Z,99011.00
2018-08-10T20:22:47.261Z,99016.00
2018-08-10T20:25:17.143Z,99017.00
2018-08-10T20:27:46.068Z,99012.00
2018-08-10T20:30:17.300Z,99014.00
2018-08-10T20:32:46.928Z,99006.00
2018-08-10T20:35:18.389Z,99018.00
2018-08-10T20:37:47.534Z,99016.00
2018-08-10T20:40:18.512Z,99018.00
2018-08-10T20:42:48.367Z,99019.00
2018-08-10T20:45:18.412Z,99018.00
2018-08-10T20:47:47.940Z,99019.00
2018-08-10T20:50:22.144Z,99012.00
2018-08-10T20:52:51.029Z,99016.00
2018-08-10T20:55:20.004Z,99020.00
2018-08-10T20:57:49.529Z,99021.00
2018-08-10T21:00:18.449Z,99018.00
2018-08-10T21:02:47.345Z,99024.00
2018-08-10T21:05:16.145Z,99026.00
2018-08-10T21:07:45.326Z,99023.00
2018-08-10T21:10:16.120Z,99027.00
2018-08-10T21:12:45.896Z,99026.00
2018-08-10T21:15:15.578Z,99032.00
2018-08-10T21:17:45.256Z,99037.00
2018-08-10T21:20:17.132Z,99038.00
2018-08-10T21:22:46.570Z,99040.00
2018-08-10T21:25:19.602Z,99043.00
2018-08-10T21:27:48.716Z,99045.00
2018-08-10T21:30:19.473Z,99046.00
2018-08-10T21:32:48.946Z,99042.00
2018-08-10T21:35:18.674Z,99047.00
2018-08-10T21:37:48.174Z,99045.00
2018-08-10T21:40:17.951Z,99048.00
2018-08-10T21:42:47.343Z,99047.00
2018-08-10T21:45:16.111Z,99047.00
2018-08-10T21:47:44.868Z,99054.00
2018-08-10T21:50:14.492Z,99053.00
2018-08-10T21:52:44.064Z,99053.00
2018-08-10T21:55:13.017Z,99047.00
2018-08-10T21:57:41.878Z,99045.00
2018-08-10T22:00:24.333Z,99054.00
2018-08-10T22:02:53.125Z,99055.00
2018-08-10T22:05:21.840Z,99056.00
2018-08-10T22:07:50.631Z,99058.00
2018-08-10T22:10:20.446Z,99063.00
2018-08-10T22:12:49.852Z,99065.00
2018-08-10T22:15:24.370Z,99067.00
2018-08-10T22:17:59.554Z,99066.00
2018-08-10T22:20:28.344Z,99062.00
2018-08-10T22:22:57.131Z,99065.00
2018-08-10T22:25:26.804Z,99068.00
2018-08-10T22:27:55.671Z,99070.00
2018-08-10T22:30:24.431Z,99073.00
2018-08-10T22:32:53.171Z,99074.00
2018-08-10T22:35:21.854Z,99074.00
2018-08-10T22:37:50.731Z,99078.00
2018-08-10T22:40:19.620Z,99078.00
2018-08-10T22:42:48.418Z,99075.00
2018-08-10T22:45:17.264Z,99075.00
2018-08-10T22:47:45.915Z,99073.00
2018-08-10T22:50:14.724Z,99078.00
2018-08-10T22:52:44.001Z,99081.00
2018-08-10T22:55:12.745Z,99082.00
2018-08-10T22:57:41.448Z,99081.00
2018-08-10T23:00:10.200Z,99081.00
2018-08-10T23:02:38.921Z,99082.00
2018-08-10T23:05:07.992Z,99087.00
2018-08-10T23:07:36.923Z,99085.00
2018-08-10T23:10:08.251Z,99083.00
2018-08-10T23:12:37.019Z,99087.00
2018-08-10T23:15:06.880Z,99085.00
2018-08-10T23:17:35.788Z,99085.00
2018-08-10T23:20:06.936Z,99076.00
2018-08-10T23:22:35.675Z,99075.00
2018-08-10T23:25:06.631Z,99076.00
2018-08-10T23:27:35.355Z,99072.00
2018-08-10T23:30:06.236Z,99073.00
2018-08-10T23:32:35.025Z,99077.00
2018-08-10T23:35:03.998Z,99077.00
2018-08-10T23:37:32.810Z,99081.00
2018-08-10T23:40:01.451Z,99080.00
2018-08-10T23:42:30.143Z,99076.00
2018-08-10T23:44:59.012Z,99071.00
2018-08-10T23:47:27.665Z,99066.00
2018-08-10T23:49:56.358Z,99063.00
2018-08-10T23:52:25.063Z,99069.00
2018-08-10T23:54:53.707Z,99065.00
2018-08-10T23:57:22.419Z,99065.00
2018-08-10T23:59:51.105Z,99058.00
